Terminal Aerodrome Forecast
Issued by NWS Louisville, KY

Home | Current Version | Previous Version | Text Only | Print | Product List | Glossary On
Versions: 1 2 3 4 5 6 7 8 9 10 11 12 13 14 15 16 17 18 19 20 21 22 23
741
FTUS43 KLMK 162026 AAA
TAFBWG
TAF AMD
KBWG 162026Z 1620/1718 16006KT P6SM VCSH BKN060
     FM162200 17006KT 5SM -SHRA BKN040
     FM170400 18010KT 3SM -SHRA VCTS OVC025CB
     FM170700 19010KT 4SM -SHRA VCTS OVC015CB
     FM171100 20011KT 5SM -SHRA VCTS OVC008CB
     FM171300 21011G20KT P6SM OVC008=

USA.gov is the U.S. government's official web portal to all federal, state and local government web resources and services.